Time,TemperatureF,DewpointF,PressureIn,WindDirection,WindDirectionDegrees,WindSpeedMPH,WindSpeedGustMPH,Humidity,HourlyPrecipIn,Conditions,Clouds,dailyrainin,SoftwareType,DateUTC
2013-10-07 00:13:00,52.0,45.0,29.80,East,90,0.0,0.0,78,0.00,,,0.01,,2013-10-07 05:13:00,
2013-10-07 00:22:00,52.0,46.0,29.80,East,90,0.0,0.0,79,0.00,,,0.01,,2013-10-07 05:22:00,
2013-10-07 00:43:00,51.0,45.0,29.80,East,90,0.0,0.0,80,0.00,,,0.01,,2013-10-07 05:43:00,
2013-10-07 00:52:00,51.0,45.0,29.80,East,90,0.0,0.0,80,0.00,,,0.01,,2013-10-07 05:52:00,
2013-10-07 01:03:00,51.0,45.0,29.80,East,90,0.0,0.0,80,0.00,,,0.01,,2013-10-07 06:03:00,
2013-10-07 01:12:00,51.0,45.0,29.80,East,90,0.0,0.0,80,0.00,,,0.01,,2013-10-07 06:12:00,
2013-10-07 01:21:00,51.0,45.0,29.80,East,90,0.0,0.0,80,0.00,,,0.01,,2013-10-07 06:21:00,
2013-10-07 01:53:00,50.0,45.0,29.80,North,360,0.0,0.0,83,0.00,,,0.01,,2013-10-07 06:53:00,
2013-10-07 02:12:00,50.0,45.0,29.81,North,360,0.0,0.0,84,0.00,,,0.01,,2013-10-07 07:12:00,
2013-10-07 02:22:00,50.0,45.0,29.81,SE,135,0.0,0.0,84,0.00,,,0.01,,2013-10-07 07:22:00,
2013-10-07 02:32:00,50.0,45.0,29.81,SE,135,0.0,0.0,84,0.00,,,0.01,,2013-10-07 07:32:00,
2013-10-07 02:42:00,50.0,45.0,29.81,SE,135,0.0,0.0,84,0.00,,,0.01,,2013-10-07 07:42:00,
2013-10-07 02:52:00,51.0,48.0,29.82,South,180,0.0,1.0,88,0.00,,,0.01,,2013-10-07 07:52:00,
2013-10-07 03:12:00,51.0,48.0,29.82,South,180,0.0,1.0,89,0.00,,,0.01,,2013-10-07 08:12:00,
2013-10-07 03:21:00,51.0,48.0,29.82,South,180,0.0,1.0,89,0.00,,,0.01,,2013-10-07 08:21:00,
2013-10-07 03:42:00,51.0,48.0,29.81,South,180,0.0,1.0,90,0.00,,,0.01,,2013-10-07 08:42:00,
2013-10-07 03:52:00,51.0,48.0,29.81,South,180,0.0,1.0,90,0.00,,,0.01,,2013-10-07 08:52:00,
2013-10-07 04:11:00,51.0,48.0,29.81,SE,135,0.0,1.0,89,0.00,,,0.01,,2013-10-07 09:11:00,
2013-10-07 04:21:00,51.0,48.0,29.82,South,180,0.0,1.0,89,0.00,,,0.01,,2013-10-07 09:21:00,
2013-10-07 04:33:00,51.0,48.0,29.82,South,180,0.0,1.0,89,0.00,,,0.01,,2013-10-07 09:33:00,
2013-10-07 04:43:00,51.0,48.0,29.82,South,180,0.0,1.0,89,0.00,,,0.01,,2013-10-07 09:43:00,
2013-10-07 04:53:00,50.0,47.0,29.82,SE,135,0.0,1.0,88,0.00,,,0.01,,2013-10-07 09:53:00,
2013-10-07 05:13:00,48.0,44.0,29.82,South,180,0.0,0.0,87,0.00,,,0.01,,2013-10-07 10:13:00,
2013-10-07 05:23:00,48.0,44.0,29.82,South,180,0.0,0.0,87,0.00,,,0.01,,2013-10-07 10:23:00,
2013-10-07 05:42:00,49.0,46.0,29.83,South,180,0.0,1.0,89,0.00,,,0.01,,2013-10-07 10:42:00,
2013-10-07 05:53:00,49.0,46.0,29.83,South,180,0.0,1.0,90,0.00,,,0.01,,2013-10-07 10:53:00,
2013-10-07 06:12:00,48.0,45.0,29.83,SSE,158,0.0,1.0,90,0.00,,,0.01,,2013-10-07 11:12:00,
2013-10-07 06:22:00,48.0,45.0,29.83,SE,135,0.0,1.0,91,0.00,,,0.01,,2013-10-07 11:22:00,
2013-10-07 06:42:00,48.0,46.0,29.84,SE,135,0.0,4.0,92,0.00,,,0.01,,2013-10-07 11:42:00,
2013-10-07 06:52:00,48.0,46.0,29.84,SE,135,0.0,4.0,92,0.00,,,0.01,,2013-10-07 11:52:00,
2013-10-07 07:12:00,48.0,45.0,29.83,SE,135,2.0,4.0,91,0.00,,,0.01,,2013-10-07 12:12:00,
2013-10-07 07:22:00,48.0,45.0,29.84,SE,135,0.0,1.0,91,0.00,,,0.01,,2013-10-07 12:22:00,
2013-10-07 07:32:00,48.0,45.0,29.84,SE,135,0.0,1.0,91,0.00,,,0.01,,2013-10-07 12:32:00,
2013-10-07 07:43:00,48.0,45.0,29.84,SE,135,0.0,1.0,91,0.00,,,0.01,,2013-10-07 12:43:00,
2013-10-07 07:52:00,48.0,45.0,29.85,South,180,0.0,2.0,90,0.00,,,0.01,,2013-10-07 12:52:00,
2013-10-07 08:11:00,50.0,47.0,29.85,South,180,0.0,1.0,90,0.00,,,0.00,,2013-10-07 13:11:00,
2013-10-07 08:22:00,50.0,47.0,29.85,South,180,0.0,1.0,89,0.00,,,0.00,,2013-10-07 13:22:00,
2013-10-07 08:32:00,50.0,47.0,29.85,South,180,0.0,1.0,89,0.00,,,0.00,,2013-10-07 13:32:00,
2013-10-07 08:42:00,50.0,47.0,29.85,South,180,0.0,1.0,89,0.00,,,0.00,,2013-10-07 13:42:00,
2013-10-07 10:43:00,67.0,47.0,29.89,NE,45,0.0,2.0,48,0.00,,,0.00,,2013-10-07 15:43:00,
2013-10-07 11:13:00,71.0,40.0,29.89,South,180,0.0,4.0,32,0.00,,,0.00,,2013-10-07 16:13:00,
2013-10-07 11:23:00,71.0,40.0,29.89,South,180,0.0,4.0,32,0.00,,,0.00,,2013-10-07 16:23:00,
2013-10-07 20:52:00,59.0,41.0,29.83,East,90,0.0,0.0,51,0.00,,,0.00,,2013-10-08 01:52:00,
2013-10-07 21:03:00,59.0,41.0,29.83,East,90,0.0,0.0,51,0.00,,,0.00,,2013-10-08 02:03:00,
2013-10-07 21:11:00,59.0,41.0,29.83,East,90,0.0,0.0,51,0.00,,,0.00,,2013-10-08 02:11:00,
2013-10-07 21:22:00,57.0,42.0,29.84,East,90,0.0,0.0,57,0.00,,,0.00,,2013-10-08 02:22:00,
2013-10-07 21:42:00,57.0,43.0,29.84,East,90,0.0,0.0,59,0.00,,,0.00,,2013-10-08 02:42:00,
2013-10-07 21:52:00,56.0,43.0,29.84,East,90,0.0,0.0,61,0.00,,,0.00,,2013-10-08 02:52:00,
2013-10-07 22:02:00,56.0,43.0,29.84,East,90,0.0,0.0,61,0.00,,,0.00,,2013-10-08 03:02:00,
2013-10-07 22:11:00,56.0,43.0,29.84,East,90,0.0,0.0,61,0.00,,,0.00,,2013-10-08 03:11:00,
2013-10-07 22:22:00,54.0,43.0,29.85,North,360,0.0,0.0,66,0.00,,,0.00,,2013-10-08 03:22:00,
2013-10-07 22:55:00,53.0,43.0,29.86,North,360,0.0,0.0,70,0.00,,,0.00,,2013-10-08 03:55:00,
2013-10-07 23:14:00,53.0,44.0,29.86,NW,315,0.0,0.0,72,0.00,,,0.00,,2013-10-08 04:14:00,
2013-10-07 23:23:00,53.0,44.0,29.86,NW,315,0.0,0.0,72,0.00,,,0.00,,2013-10-08 04:23:00,
2013-10-07 23:43:00,52.0,44.0,29.86,NE,45,0.0,0.0,75,0.00,,,0.00,,2013-10-08 04:43:00,
2013-10-07 23:53:00,52.0,45.0,29.85,NE,45,0.0,0.0,76,0.00,,,0.00,,2013-10-08 04:53:00,